Time;durP1;ratioP1;P1;durP2;ratioP2;P2;SDS_P1;SDS_P2;PMS_P1;PMS_P2;Temp;Humidity;BMP_temperature;BMP_pressure;BME280_temperature;BME280_humidity;BME280_pressure;Samples;Min_cycle;Max_cycle;Signal;HPM_P1;HPM_P2
2024/01/14 00:02:10;;;;;;;13.77;1.42;;;;;;;;;;4968616;28;20050;-69
2024/01/14 00:04:37;;;;;;;13.48;1.05;;;;;;;;;;4968130;28;20059;-67
2024/01/14 00:07:05;;;;;;;13.02;1.33;;;;;;;;;;4966366;28;20054;-67
2024/01/14 00:09:32;;;;;;;8.65;1.58;;;;;;;;;;4968755;28;20061;-67
2024/01/14 00:12:00;;;;;;;12.98;1.50;;;;;;;;;;4966778;28;20513;-67
2024/01/14 00:14:28;;;;;;;10.52;1.27;;;;;;;;;;4969105;28;20050;-67
2024/01/14 00:16:55;;;;;;;5.75;1.20;;;;;;;;;;4966460;28;20062;-69
2024/01/14 00:19:22;;;;;;;15.00;1.25;;;;;;;;;;4969291;28;20047;-67
2024/01/14 00:21:49;;;;;;;16.80;1.40;;;;;;;;;;4967641;28;20375;-67
2024/01/14 00:24:17;;;;;;;8.85;0.90;;;;;;;;;;4969384;28;20641;-68
2024/01/14 00:26:44;;;;;;;24.20;1.55;;;;;;;;;;4964144;28;20046;-67
2024/01/14 00:29:13;;;;;;;13.43;1.77;;;;;;;;;;4968041;28;20446;-70
2024/01/14 00:31:40;;;;;;;11.10;1.02;;;;;;;;;;4963135;28;20057;-69
2024/01/14 00:34:07;;;;;;;12.23;1.98;;;;;;;;;;4965677;28;20051;-70
2024/01/14 00:36:39;;;;;;;11.95;1.10;;;;;;;;;;4966516;28;20047;-67
2024/01/14 00:39:06;;;;;;;15.68;1.35;;;;;;;;;;4968003;28;20046;-67
2024/01/14 00:41:34;;;;;;;7.75;1.00;;;;;;;;;;4962886;28;20043;-67
2024/01/14 00:44:02;;;;;;;12.75;1.08;;;;;;;;;;4966715;28;20503;-67
2024/01/14 00:46:31;;;;;;;13.07;1.23;;;;;;;;;;4968894;28;20482;-68
2024/01/14 00:48:58;;;;;;;18.90;1.80;;;;;;;;;;4965591;28;20109;-67
2024/01/14 00:51:25;;;;;;;13.15;2.00;;;;;;;;;;4969038;28;20116;-67
2024/01/14 00:53:53;;;;;;;12.27;2.40;;;;;;;;;;4967250;28;20055;-68
2024/01/14 00:56:20;;;;;;;12.25;1.10;;;;;;;;;;4968737;28;20080;-67
2024/01/14 00:58:48;;;;;;;13.57;1.08;;;;;;;;;;4963854;28;20069;-67
2024/01/14 01:01:15;;;;;;;19.13;1.65;;;;;;;;;;4968420;28;20138;-68
2024/01/14 01:03:44;;;;;;;18.83;1.27;;;;;;;;;;4964571;28;20055;-67
2024/01/14 01:06:11;;;;;;;13.30;0.90;;;;;;;;;;4968274;28;20047;-67
2024/01/14 01:08:38;;;;;;;13.32;1.42;;;;;;;;;;4970892;28;20490;-67
2024/01/14 01:11:06;;;;;;;18.05;1.38;;;;;;;;;;4968685;28;20074;-66
2024/01/14 01:13:34;;;;;;;14.30;1.50;;;;;;;;;;4963526;28;20055;-68
2024/01/14 01:16:01;;;;;;;12.05;1.50;;;;;;;;;;4966707;28;20093;-67
2024/01/14 01:18:28;;;;;;;12.10;1.52;;;;;;;;;;4964551;28;20066;-67
2024/01/14 01:20:57;;;;;;;14.13;1.35;;;;;;;;;;4965931;28;20061;-68
2024/01/14 01:23:24;;;;;;;9.35;1.00;;;;;;;;;;4966111;28;20125;-67
2024/01/14 01:25:52;;;;;;;19.35;1.50;;;;;;;;;;4968357;28;20066;-67
2024/01/14 01:28:19;;;;;;;14.57;2.38;;;;;;;;;;4968672;28;20403;-67
2024/01/14 01:30:46;;;;;;;16.23;1.95;;;;;;;;;;4970770;28;20066;-68
2024/01/14 01:33:13;;;;;;;21.00;1.70;;;;;;;;;;4970106;28;20406;-68
2024/01/14 01:35:41;;;;;;;14.25;1.38;;;;;;;;;;4971956;28;20056;-67
2024/01/14 01:38:09;;;;;;;16.15;1.30;;;;;;;;;;4967138;28;20051;-67
2024/01/14 01:40:37;;;;;;;20.73;1.45;;;;;;;;;;4968524;28;20078;-68
2024/01/14 01:43:04;;;;;;;20.45;1.98;;;;;;;;;;4969478;28;20050;-67
2024/01/14 01:45:31;;;;;;;17.73;1.75;;;;;;;;;;4964939;28;20057;-67
2024/01/14 01:47:59;;;;;;;22.67;2.22;;;;;;;;;;4977376;28;20047;-67
2024/01/14 01:50:27;;;;;;;19.83;2.17;;;;;;;;;;4966086;28;20141;-68
2024/01/14 01:52:55;;;;;;;13.55;1.77;;;;;;;;;;4966113;28;20054;-70
2024/01/14 01:55:24;;;;;;;18.75;1.60;;;;;;;;;;4974497;28;20461;-67
2024/01/14 01:57:52;;;;;;;15.35;1.40;;;;;;;;;;4971626;28;20047;-67
2024/01/14 02:00:21;;;;;;;13.93;1.42;;;;;;;;;;4976584;28;20172;-68
2024/01/14 02:02:48;;;;;;;10.50;0.95;;;;;;;;;;4960427;28;20511;-67
2024/01/14 02:05:15;;;;;;;16.58;1.45;;;;;;;;;;4971255;28;20435;-67
2024/01/14 02:07:44;;;;;;;26.02;1.63;;;;;;;;;;4970537;28;20055;-67
2024/01/14 02:10:12;;;;;;;10.88;1.30;;;;;;;;;;4970236;28;20057;-68
2024/01/14 02:12:40;;;;;;;15.88;1.45;;;;;;;;;;4968449;28;20062;-67
2024/01/14 02:15:08;;;;;;;19.33;1.70;;;;;;;;;;4961430;28;20059;-67
2024/01/14 02:17:35;;;;;;;9.05;1.40;;;;;;;;;;4968816;28;20066;-68
2024/01/14 02:20:02;;;;;;;11.70;1.23;;;;;;;;;;4966104;28;20054;-67
2024/01/14 02:22:31;;;;;;;8.75;1.25;;;;;;;;;;4971003;28;20141;-67
2024/01/14 02:25:00;;;;;;;17.42;4.20;;;;;;;;;;4969133;28;20050;-67
2024/01/14 02:27:27;;;;;;;21.38;1.33;;;;;;;;;;4967866;28;20054;-67
2024/01/14 02:29:55;;;;;;;13.05;1.33;;;;;;;;;;4969648;28;20502;-68
2024/01/14 02:32:22;;;;;;;12.75;1.40;;;;;;;;;;4970925;28;20074;-66
2024/01/14 02:34:50;;;;;;;10.82;1.30;;;;;;;;;;4970016;28;20063;-66
2024/01/14 02:37:17;;;;;;;10.25;1.67;;;;;;;;;;4971050;28;20050;-66
2024/01/14 02:39:44;;;;;;;15.40;1.65;;;;;;;;;;4970522;28;20050;-67
2024/01/14 02:42:13;;;;;;;11.90;1.42;;;;;;;;;;4969536;28;20101;-67
2024/01/14 02:44:40;;;;;;;14.15;1.73;;;;;;;;;;4971140;28;20054;-66
2024/01/14 02:47:07;;;;;;;12.93;1.20;;;;;;;;;;4969278;28;20055;-66
2024/01/14 02:49:35;;;;;;;12.35;1.30;;;;;;;;;;4971628;28;20058;-69
2024/01/14 02:52:02;;;;;;;13.30;1.10;;;;;;;;;;4964366;28;20054;-66
2024/01/14 02:54:30;;;;;;;13.73;1.60;;;;;;;;;;4970408;28;20049;-67
2024/01/14 02:56:57;;;;;;;17.50;1.70;;;;;;;;;;4968507;28;20065;-67
2024/01/14 02:59:25;;;;;;;15.73;1.67;;;;;;;;;;4970628;28;20418;-67
2024/01/14 03:01:53;;;;;;;15.02;1.23;;;;;;;;;;4970126;28;20043;-67
2024/01/14 03:04:20;;;;;;;16.15;1.15;;;;;;;;;;4970359;28;20050;-67
2024/01/14 03:06:47;;;;;;;11.52;1.42;;;;;;;;;;4959149;28;20603;-68
2024/01/14 03:09:15;;;;;;;16.65;2.20;;;;;;;;;;4963994;28;20055;-67
2024/01/14 03:11:42;;;;;;;19.67;2.55;;;;;;;;;;4956534;28;20047;-66
2024/01/14 03:14:09;;;;;;;16.80;1.35;;;;;;;;;;4954600;28;20499;-67
2024/01/14 03:16:38;;;;;;;17.25;2.00;;;;;;;;;;4961316;28;20054;-67
2024/01/14 03:19:05;;;;;;;17.70;1.40;;;;;;;;;;4959685;28;20051;-67
2024/01/14 03:21:32;;;;;;;15.10;1.95;;;;;;;;;;4956165;28;20047;-69
2024/01/14 03:23:59;;;;;;;14.93;1.63;;;;;;;;;;4956966;28;20863;-67
2024/01/14 03:26:27;;;;;;;19.67;1.55;;;;;;;;;;4953935;28;20063;-66
2024/01/14 03:28:54;;;;;;;20.48;2.13;;;;;;;;;;4963454;28;20411;-67
2024/01/14 03:31:21;;;;;;;15.20;1.55;;;;;;;;;;4961487;28;20627;-68
2024/01/14 03:33:50;;;;;;;18.23;1.73;;;;;;;;;;4954720;28;20062;-68
2024/01/14 03:36:17;;;;;;;15.57;2.90;;;;;;;;;;4963372;28;20054;-67
2024/01/14 03:38:44;;;;;;;16.35;1.80;;;;;;;;;;4957649;28;20047;-67
2024/01/14 03:41:12;;;;;;;20.20;1.77;;;;;;;;;;4955211;28;20379;-67
2024/01/14 03:43:40;;;;;;;16.90;1.70;;;;;;;;;;4962240;28;20051;-69
2024/01/14 03:46:07;;;;;;;13.07;2.45;;;;;;;;;;4956405;28;20054;-67
2024/01/14 03:48:34;;;;;;;17.08;2.15;;;;;;;;;;4951952;28;20061;-67
2024/01/14 03:51:03;;;;;;;19.25;2.05;;;;;;;;;;4957995;28;20063;-67
2024/01/14 03:53:30;;;;;;;16.65;2.45;;;;;;;;;;4957266;28;20043;-67
2024/01/14 03:55:57;;;;;;;16.23;1.85;;;;;;;;;;4952922;28;20063;-67
2024/01/14 03:58:24;;;;;;;24.38;3.63;;;;;;;;;;4952375;28;20061;-67
2024/01/14 04:00:52;;;;;;;19.25;2.22;;;;;;;;;;4961145;28;20293;-67
2024/01/14 04:03:19;;;;;;;18.50;2.05;;;;;;;;;;4958980;28;20055;-67
2024/01/14 04:05:47;;;;;;;15.63;2.72;;;;;;;;;;4957256;28;20509;-68
2024/01/14 04:08:15;;;;;;;12.45;1.58;;;;;;;;;;4959212;28;20051;-66
2024/01/14 04:10:42;;;;;;;24.23;1.60;;;;;;;;;;4957340;28;20043;-69
2024/01/14 04:13:10;;;;;;;14.65;1.63;;;;;;;;;;4956876;28;20054;-69
2024/01/14 04:15:37;;;;;;;17.48;1.65;;;;;;;;;;4956579;28;20110;-66
2024/01/14 04:18:05;;;;;;;21.48;1.75;;;;;;;;;;4958356;28;20042;-67
2024/01/14 04:20:32;;;;;;;18.60;2.20;;;;;;;;;;4962132;28;20062;-67
2024/01/14 04:22:59;;;;;;;20.92;1.83;;;;;;;;;;4956964;28;20054;-66
2024/01/14 04:25:28;;;;;;;15.85;1.60;;;;;;;;;;4955953;28;20062;-67
2024/01/14 04:27:55;;;;;;;16.42;1.48;;;;;;;;;;4953068;28;20063;-68
2024/01/14 04:30:22;;;;;;;18.60;1.80;;;;;;;;;;4954340;28;20142;-67
2024/01/14 04:32:50;;;;;;;18.88;2.47;;;;;;;;;;4956248;28;20479;-67
2024/01/14 04:35:17;;;;;;;17.27;1.30;;;;;;;;;;4955208;28;20157;-67
2024/01/14 04:37:44;;;;;;;10.02;1.55;;;;;;;;;;4955934;28;20133;-67
2024/01/14 04:40:12;;;;;;;20.40;2.45;;;;;;;;;;4956923;28;20499;-68
2024/01/14 04:42:40;;;;;;;12.95;2.03;;;;;;;;;;4958417;28;20047;-67
2024/01/14 04:45:08;;;;;;;15.05;1.55;;;;;;;;;;4954545;28;20507;-67
2024/01/14 04:47:35;;;;;;;18.00;2.33;;;;;;;;;;4952750;28;20051;-68
2024/01/14 04:50:03;;;;;;;14.05;2.10;;;;;;;;;;4953793;28;20109;-67
2024/01/14 04:52:30;;;;;;;9.88;1.95;;;;;;;;;;4955247;28;20151;-69
2024/01/14 04:54:57;;;;;;;11.68;1.60;;;;;;;;;;4953638;28;20051;-69
2024/01/14 04:57:25;;;;;;;13.18;1.50;;;;;;;;;;4955083;28;20053;-67
2024/01/14 04:59:53;;;;;;;16.83;1.58;;;;;;;;;;4954727;28;20381;-68
2024/01/14 05:02:21;;;;;;;14.07;2.35;;;;;;;;;;4959959;28;20513;-68
2024/01/14 05:04:48;;;;;;;14.40;1.10;;;;;;;;;;4958460;28;20055;-67
2024/01/14 05:07:15;;;;;;;11.18;1.30;;;;;;;;;;4958883;28;20043;-66
2024/01/14 05:09:42;;;;;;;13.80;1.35;;;;;;;;;;4953193;28;20078;-66
2024/01/14 05:12:10;;;;;;;10.85;1.70;;;;;;;;;;4958502;28;20496;-68
2024/01/14 05:14:37;;;;;;;6.47;1.00;;;;;;;;;;4966469;28;20053;-66
2024/01/14 05:17:06;;;;;;;17.88;1.27;;;;;;;;;;4963823;28;20510;-67
2024/01/14 05:19:33;;;;;;;18.00;2.45;;;;;;;;;;4968087;28;20054;-66
2024/01/14 05:22:00;;;;;;;10.15;1.45;;;;;;;;;;4968620;28;20466;-67
2024/01/14 05:24:27;;;;;;;15.48;0.98;;;;;;;;;;4966354;28;20054;-67
2024/01/14 05:26:55;;;;;;;13.60;1.65;;;;;;;;;;4971458;28;20077;-66
2024/01/14 05:29:22;;;;;;;9.38;1.60;;;;;;;;;;4965768;28;20051;-67
2024/01/14 05:31:49;;;;;;;10.55;1.30;;;;;;;;;;4959814;28;20498;-67
2024/01/14 05:34:18;;;;;;;11.50;1.67;;;;;;;;;;4966247;28;20055;-67
2024/01/14 05:36:45;;;;;;;14.43;1.67;;;;;;;;;;4966052;28;20081;-67
2024/01/14 05:39:12;;;;;;;14.55;1.63;;;;;;;;;;4965758;28;20070;-66
2024/01/14 05:41:39;;;;;;;10.82;1.20;;;;;;;;;;4966248;28;20062;-66
2024/01/14 05:44:07;;;;;;;12.70;1.10;;;;;;;;;;4971451;28;20521;-67
2024/01/14 05:46:34;;;;;;;15.02;1.67;;;;;;;;;;4969945;28;20058;-66
2024/01/14 05:49:01;;;;;;;9.63;1.20;;;;;;;;;;4971698;28;20421;-67
2024/01/14 05:51:30;;;;;;;16.77;1.60;;;;;;;;;;4959197;28;20062;-66
2024/01/14 05:53:57;;;;;;;13.73;1.00;;;;;;;;;;4941398;29;20055;-67
2024/01/14 05:56:27;;;;;;;12.32;1.50;;;;;;;;;;4952311;28;20054;-66
2024/01/14 05:58:54;;;;;;;10.95;0.95;;;;;;;;;;4956118;28;20055;-66
2024/01/14 06:01:22;;;;;;;23.17;3.58;;;;;;;;;;4952570;28;20055;-68
2024/01/14 06:03:49;;;;;;;13.85;1.50;;;;;;;;;;4953284;28;20126;-67
2024/01/14 06:06:16;;;;;;;15.70;1.52;;;;;;;;;;4951970;28;20055;-68
2024/01/14 06:08:45;;;;;;;15.43;1.77;;;;;;;;;;4951855;28;20054;-68
2024/01/14 06:11:13;;;;;;;8.48;1.17;;;;;;;;;;4937872;28;20055;-67
2024/01/14 06:13:41;;;;;;;9.27;0.98;;;;;;;;;;4922309;29;20510;-69
2024/01/14 06:16:09;;;;;;;8.10;0.95;;;;;;;;;;4938973;28;20079;-67
2024/01/14 06:18:36;;;;;;;11.25;1.58;;;;;;;;;;4941285;28;20411;-67
2024/01/14 06:21:03;;;;;;;11.93;2.03;;;;;;;;;;4922762;29;20872;-67
2024/01/14 06:23:31;;;;;;;13.15;1.00;;;;;;;;;;4925533;29;20044;-66
2024/01/14 06:25:59;;;;;;;8.85;1.13;;;;;;;;;;4937894;28;20047;-69
2024/01/14 06:28:27;;;;;;;9.07;0.80;;;;;;;;;;4920443;29;20090;-69
2024/01/14 06:30:54;;;;;;;9.55;0.90;;;;;;;;;;4936991;28;20459;-67
2024/01/14 06:33:21;;;;;;;15.30;1.20;;;;;;;;;;4938552;28;20468;-66
2024/01/14 06:35:48;;;;;;;12.10;1.20;;;;;;;;;;4926551;28;21321;-68
2024/01/14 06:38:16;;;;;;;5.32;1.20;;;;;;;;;;4919866;29;20047;-69
2024/01/14 06:40:43;;;;;;;8.45;1.48;;;;;;;;;;4941911;28;20058;-69
2024/01/14 06:43:11;;;;;;;7.55;0.55;;;;;;;;;;4924252;29;20039;-69
2024/01/14 06:45:39;;;;;;;6.95;0.90;;;;;;;;;;4941928;28;20121;-67
2024/01/14 06:48:09;;;;;;;8.40;0.60;;;;;;;;;;4942161;28;20055;-67
2024/01/14 06:50:37;;;;;;;5.03;0.57;;;;;;;;;;4928425;28;20066;-67
2024/01/14 06:53:04;;;;;;;10.10;0.98;;;;;;;;;;4957712;28;20047;-67
2024/01/14 06:55:31;;;;;;;5.40;0.55;;;;;;;;;;4955888;28;20051;-67
2024/01/14 06:57:59;;;;;;;5.28;0.75;;;;;;;;;;4959820;28;20162;-68
2024/01/14 07:00:28;;;;;;;5.93;0.90;;;;;;;;;;4956745;28;20090;-67
2024/01/14 07:02:55;;;;;;;13.80;0.85;;;;;;;;;;4956372;28;20055;-66
2024/01/14 07:05:22;;;;;;;10.25;0.90;;;;;;;;;;4958925;28;20056;-67
2024/01/14 07:07:49;;;;;;;8.38;0.88;;;;;;;;;;4960307;28;20054;-67
2024/01/14 07:10:17;;;;;;;8.27;0.63;;;;;;;;;;4955608;28;20057;-67
2024/01/14 07:12:44;;;;;;;7.10;0.57;;;;;;;;;;4955291;28;20043;-67
2024/01/14 07:15:12;;;;;;;11.18;1.67;;;;;;;;;;4954376;28;20051;-67
2024/01/14 07:17:40;;;;;;;10.18;0.73;;;;;;;;;;4954533;28;20388;-67
2024/01/14 07:20:08;;;;;;;27.63;2.42;;;;;;;;;;4954069;28;20042;-67
2024/01/14 07:22:35;;;;;;;10.10;0.93;;;;;;;;;;4956355;28;20834;-67
2024/01/14 07:25:02;;;;;;;16.95;0.93;;;;;;;;;;4960458;28;20047;-67
2024/01/14 07:27:30;;;;;;;6.13;0.82;;;;;;;;;;4955786;28;20059;-67
2024/01/14 07:29:57;;;;;;;12.23;1.08;;;;;;;;;;4954236;28;20551;-67
2024/01/14 07:32:24;;;;;;;8.38;0.98;;;;;;;;;;4955156;28;20495;-67
2024/01/14 07:34:53;;;;;;;7.68;1.48;;;;;;;;;;4953300;28;20051;-67
2024/01/14 07:37:20;;;;;;;14.73;1.50;;;;;;;;;;4956989;28;20058;-67
2024/01/14 07:39:47;;;;;;;15.25;2.65;;;;;;;;;;4949187;28;20047;-67
2024/01/14 07:42:16;;;;;;;9.27;1.10;;;;;;;;;;4952027;28;20474;-67
2024/01/14 07:44:43;;;;;;;7.65;1.45;;;;;;;;;;4953828;28;20051;-70
2024/01/14 07:47:11;;;;;;;10.60;1.48;;;;;;;;;;4955336;28;20058;-67
2024/01/14 07:49:38;;;;;;;17.45;1.48;;;;;;;;;;4950513;28;20051;-66
2024/01/14 07:52:07;;;;;;;10.35;1.50;;;;;;;;;;4953199;28;20055;-66
2024/01/14 07:54:34;;;;;;;13.18;1.30;;;;;;;;;;4954484;28;20047;-68
2024/01/14 07:57:01;;;;;;;13.05;1.45;;;;;;;;;;4954057;28;20800;-67
2024/01/14 07:59:28;;;;;;;16.15;1.55;;;;;;;;;;4952639;28;20054;-69
2024/01/14 08:01:56;;;;;;;18.88;1.92;;;;;;;;;;4950882;28;20066;-67
2024/01/14 08:04:23;;;;;;;16.27;1.15;;;;;;;;;;4955543;28;20047;-69
2024/01/14 08:06:50;;;;;;;15.10;2.22;;;;;;;;;;4961049;28;20059;-68
2024/01/14 08:09:20;;;;;;;16.17;1.83;;;;;;;;;;4951043;28;20055;-69
2024/01/14 08:11:47;;;;;;;19.60;1.30;;;;;;;;;;4954504;28;20043;-65
2024/01/14 08:14:16;;;;;;;20.60;1.83;;;;;;;;;;4953929;28;20047;-68
2024/01/14 08:16:43;;;;;;;15.52;1.33;;;;;;;;;;4954037;28;20514;-70
2024/01/14 08:19:10;;;;;;;9.95;1.63;;;;;;;;;;4953268;28;20617;-66
2024/01/14 08:21:38;;;;;;;10.15;1.00;;;;;;;;;;4955225;28;20074;-67
2024/01/14 08:24:05;;;;;;;12.93;1.50;;;;;;;;;;4954775;28;20132;-68
2024/01/14 08:26:34;;;;;;;9.98;1.45;;;;;;;;;;4953330;28;20161;-68
2024/01/14 08:29:01;;;;;;;12.50;1.40;;;;;;;;;;4954827;28;20066;-67
2024/01/14 08:31:28;;;;;;;17.17;1.88;;;;;;;;;;4950313;28;20058;-68
2024/01/14 08:33:55;;;;;;;16.35;2.00;;;;;;;;;;4950654;28;20054;-69
2024/01/14 08:36:23;;;;;;;16.77;1.30;;;;;;;;;;4951478;28;20075;-68
2024/01/14 08:38:50;;;;;;;12.25;1.40;;;;;;;;;;4955283;28;20050;-67
2024/01/14 08:41:17;;;;;;;14.57;1.60;;;;;;;;;;4953816;28;20534;-65
2024/01/14 08:43:46;;;;;;;19.02;2.15;;;;;;;;;;4957996;28;20051;-65
2024/01/14 08:46:13;;;;;;;9.98;1.10;;;;;;;;;;4956637;28;20066;-65
2024/01/14 08:48:41;;;;;;;13.68;2.15;;;;;;;;;;4956832;28;20521;-65
2024/01/14 08:51:10;;;;;;;14.00;1.77;;;;;;;;;;4960232;28;20055;-65
2024/01/14 08:53:37;;;;;;;10.70;1.48;;;;;;;;;;4968045;28;20514;-65
2024/01/14 08:56:05;;;;;;;13.80;1.63;;;;;;;;;;4955526;28;20055;-65
2024/01/14 08:58:32;;;;;;;12.60;2.08;;;;;;;;;;4957997;28;20138;-65
2024/01/14 09:01:01;;;;;;;21.83;1.92;;;;;;;;;;4960481;28;20061;-66
2024/01/14 09:03:28;;;;;;;16.92;1.33;;;;;;;;;;4956499;28;20046;-65
2024/01/14 09:05:56;;;;;;;11.35;1.30;;;;;;;;;;4956362;28;20062;-65
2024/01/14 09:08:23;;;;;;;11.07;1.75;;;;;;;;;;4955880;28;20579;-65
2024/01/14 09:10:50;;;;;;;11.13;1.23;;;;;;;;;;4953645;28;20629;-66
2024/01/14 09:13:18;;;;;;;9.52;1.00;;;;;;;;;;4962327;28;20046;-66
2024/01/14 09:15:45;;;;;;;16.85;1.45;;;;;;;;;;4955223;28;20058;-65
2024/01/14 09:18:14;;;;;;;11.73;1.08;;;;;;;;;;4958395;28;20047;-65
2024/01/14 09:20:41;;;;;;;15.25;1.38;;;;;;;;;;4956445;28;20490;-65
2024/01/14 09:23:08;;;;;;;13.27;2.13;;;;;;;;;;4956683;28;20546;-65
2024/01/14 09:25:36;;;;;;;11.50;1.58;;;;;;;;;;4957687;28;20047;-66
2024/01/14 09:28:03;;;;;;;18.73;1.75;;;;;;;;;;4959831;28;20055;-65
2024/01/14 09:30:30;;;;;;;15.70;1.23;;;;;;;;;;4953708;28;20062;-69
2024/01/14 09:32:58;;;;;;;18.45;1.50;;;;;;;;;;4956760;28;20061;-66
2024/01/14 09:35:27;;;;;;;14.68;1.48;;;;;;;;;;4958498;28;20134;-65
2024/01/14 09:37:54;;;;;;;13.35;1.52;;;;;;;;;;4959747;28;20053;-65
2024/01/14 09:40:21;;;;;;;5.63;1.08;;;;;;;;;;4960053;28;20137;-68
2024/01/14 09:42:51;;;;;;;16.88;1.45;;;;;;;;;;4961141;28;20085;-64
2024/01/14 09:45:20;;;;;;;9.23;1.40;;;;;;;;;;4952896;28;20163;-64
2024/01/14 09:47:47;;;;;;;11.40;1.23;;;;;;;;;;4962708;28;20083;-63
2024/01/14 09:50:15;;;;;;;10.05;1.75;;;;;;;;;;4961860;28;20047;-66
2024/01/14 09:52:43;;;;;;;14.93;1.58;;;;;;;;;;4961764;28;20055;-67
2024/01/14 09:55:11;;;;;;;9.40;1.05;;;;;;;;;;4965192;28;20055;-67
2024/01/14 09:57:41;;;;;;;19.40;1.65;;;;;;;;;;4965124;28;20054;-68
2024/01/14 10:00:09;;;;;;;33.95;2.58;;;;;;;;;;4970124;28;20062;-68
2024/01/14 10:02:36;;;;;;;11.40;1.65;;;;;;;;;;4971397;28;20548;-68
2024/01/14 10:05:04;;;;;;;13.23;1.63;;;;;;;;;;4968151;28;20133;-69
2024/01/14 10:07:32;;;;;;;16.83;1.80;;;;;;;;;;4964942;28;20051;-69
2024/01/14 10:10:00;;;;;;;21.88;2.25;;;;;;;;;;4968345;28;20054;-68
2024/01/14 10:12:28;;;;;;;9.70;1.48;;;;;;;;;;4965945;28;20046;-69
2024/01/14 10:14:59;;;;;;;10.27;1.58;;;;;;;;;;4969146;28;20058;-69
2024/01/14 10:17:26;;;;;;;11.73;1.42;;;;;;;;;;4968022;28;20050;-69
2024/01/14 10:19:54;;;;;;;11.43;1.60;;;;;;;;;;4968885;28;20410;-69
2024/01/14 10:22:21;;;;;;;10.00;1.42;;;;;;;;;;4966417;28;20058;-68
2024/01/14 10:24:54;;;;;;;15.85;2.60;;;;;;;;;;4971495;28;20046;-68
2024/01/14 10:27:24;;;;;;;11.50;1.58;;;;;;;;;;4970582;28;20054;-69
2024/01/14 10:29:51;;;;;;;14.05;1.77;;;;;;;;;;4966814;28;20063;-69
2024/01/14 10:32:18;;;;;;;13.75;1.25;;;;;;;;;;4970495;28;20047;-69
2024/01/14 10:34:46;;;;;;;11.38;1.27;;;;;;;;;;4968311;28;20090;-69
2024/01/14 10:37:13;;;;;;;11.35;1.00;;;;;;;;;;4966474;28;20113;-68
2024/01/14 10:39:42;;;;;;;10.98;1.13;;;;;;;;;;4962818;28;20656;-69
2024/01/14 10:42:09;;;;;;;11.20;1.00;;;;;;;;;;4967883;28;20051;-69
2024/01/14 10:44:38;;;;;;;8.85;1.20;;;;;;;;;;4967765;28;20046;-69
2024/01/14 10:47:08;;;;;;;12.57;1.10;;;;;;;;;;4961819;28;20047;-69
2024/01/14 10:49:36;;;;;;;10.07;1.40;;;;;;;;;;4965392;28;20050;-68
2024/01/14 10:52:09;;;;;;;10.52;1.08;;;;;;;;;;4953634;28;20062;-69
2024/01/14 10:54:36;;;;;;;;;;;;;;;;;;4927565;28;20053;-69
2024/01/14 10:57:09;;;;;;;6.80;0.80;;;;;;;;;;4942651;29;19930;-69
2024/01/14 10:59:38;;;;;;;9.53;0.90;;;;;;;;;;4950110;28;20055;-68
2024/01/14 11:02:13;;;;;;;8.48;1.20;;;;;;;;;;4951805;29;20083;-69
2024/01/14 11:04:40;;;;;;;10.05;1.13;;;;;;;;;;4950370;29;20372;-69
2024/01/14 11:07:07;;;;;;;8.65;0.80;;;;;;;;;;4951118;29;20518;-69
2024/01/14 11:09:35;;;;;;;12.90;1.25;;;;;;;;;;4950632;28;20062;-69
2024/01/14 11:12:06;;;;;;;8.65;1.02;;;;;;;;;;4951456;29;20101;-69
2024/01/14 11:14:36;;;;;;;5.93;0.55;;;;;;;;;;4951155;29;20499;-69
2024/01/14 11:17:12;;;;;;;11.52;0.95;;;;;;;;;;4951775;29;20066;-69
2024/01/14 11:19:40;;;;;;;7.82;0.90;;;;;;;;;;4950041;29;20054;-69
2024/01/14 11:22:18;;;;;;;6.78;1.00;;;;;;;;;;4951565;29;20051;-69
2024/01/14 11:24:46;;;;;;;11.35;1.17;;;;;;;;;;4950504;29;20106;-69
2024/01/14 11:27:14;;;;;;;4.25;0.95;;;;;;;;;;4951615;29;20062;-69
2024/01/14 11:29:41;;;;;;;6.13;0.85;;;;;;;;;;4950024;29;20055;-69
2024/01/14 11:32:11;;;;;;;6.53;1.38;;;;;;;;;;4950333;28;20055;-69
2024/01/14 11:34:59;;;;;;;10.18;1.02;;;;;;;;;;4951898;29;20603;-69
2024/01/14 11:37:42;;;;;;;5.00;1.25;;;;;;;;;;4950349;29;20712;-69
2024/01/14 11:40:11;;;;;;;7.38;2.03;;;;;;;;;;4948143;29;20097;-70
2024/01/14 11:42:38;;;;;;;4.70;1.05;;;;;;;;;;4950795;29;21406;-69
2024/01/14 11:45:14;;;;;;;11.85;1.70;;;;;;;;;;4948494;28;20474;-70
2024/01/14 11:47:44;;;;;;;8.25;1.80;;;;;;;;;;4950421;28;20047;-69
2024/01/14 11:50:13;;;;;;;11.13;1.85;;;;;;;;;;4948573;28;20051;-69
2024/01/14 11:52:43;;;;;;;11.20;1.02;;;;;;;;;;4967434;28;20054;-69
2024/01/14 11:55:12;;;;;;;8.52;1.48;;;;;;;;;;4968955;28;20442;-70
2024/01/14 11:57:39;;;;;;;10.10;1.85;;;;;;;;;;4969959;28;20511;-69
2024/01/14 12:00:07;;;;;;;6.88;1.27;;;;;;;;;;4965671;28;20057;-69
2024/01/14 12:02:35;;;;;;;7.30;0.90;;;;;;;;;;4969275;28;20057;-69
2024/01/14 12:05:17;;;;;;;7.15;1.25;;;;;;;;;;4969572;28;20119;-69
2024/01/14 12:07:44;;;;;;;4.22;0.85;;;;;;;;;;4967539;28;20061;-68
2024/01/14 12:10:14;;;;;;;6.80;1.55;;;;;;;;;;4963012;28;20146;-70
2024/01/14 12:12:42;;;;;;;8.82;0.90;;;;;;;;;;4967604;28;20055;-69
2024/01/14 12:15:10;;;;;;;10.52;2.80;;;;;;;;;;4970318;28;20047;-69
2024/01/14 12:17:37;;;;;;;6.35;0.90;;;;;;;;;;4967499;28;20051;-70
2024/01/14 12:20:05;;;;;;;4.15;0.80;;;;;;;;;;4969563;28;20051;-70
2024/01/14 12:22:35;;;;;;;7.28;0.50;;;;;;;;;;4968650;28;20051;-70
2024/01/14 12:25:03;;;;;;;5.50;0.70;;;;;;;;;;4966072;28;20051;-69
2024/01/14 12:27:30;;;;;;;3.42;0.47;;;;;;;;;;4969150;28;20047;-70
2024/01/14 12:29:58;;;;;;;4.70;0.80;;;;;;;;;;4967944;28;20055;-70
2024/01/14 12:32:25;;;;;;;5.70;0.70;;;;;;;;;;4968890;28;20093;-69
2024/01/14 12:34:52;;;;;;;4.93;0.90;;;;;;;;;;4969573;28;20058;-69
2024/01/14 12:37:22;;;;;;;8.70;1.42;;;;;;;;;;4968168;28;20057;-69
2024/01/14 12:39:52;;;;;;;7.80;1.30;;;;;;;;;;4962739;28;20501;-69
2024/01/14 12:42:19;;;;;;;5.05;0.90;;;;;;;;;;4966879;28;20265;-69
2024/01/14 12:44:48;;;;;;;4.72;1.13;;;;;;;;;;4958887;28;20472;-70
2024/01/14 12:47:15;;;;;;;3.25;0.63;;;;;;;;;;4963699;28;20046;-69
2024/01/14 12:49:44;;;;;;;8.13;0.95;;;;;;;;;;4961880;28;20071;-69
2024/01/14 12:52:12;;;;;;;7.32;0.88;;;;;;;;;;4962950;28;20055;-69
2024/01/14 12:54:39;;;;;;;2.90;0.30;;;;;;;;;;4964771;28;20055;-69
2024/01/14 12:57:08;;;;;;;4.78;0.47;;;;;;;;;;4968119;28;20051;-70
2024/01/14 12:59:35;;;;;;;1.15;0.35;;;;;;;;;;4963714;28;20055;-69
2024/01/14 13:02:02;;;;;;;1.90;0.40;;;;;;;;;;4968293;28;20533;-69
2024/01/14 13:04:30;;;;;;;9.52;0.50;;;;;;;;;;4968400;28;20055;-69
2024/01/14 13:06:57;;;;;;;2.15;0.22;;;;;;;;;;4969445;28;20059;-70
2024/01/14 13:09:25;;;;;;;3.20;0.38;;;;;;;;;;4967372;28;20074;-70
2024/01/14 13:11:52;;;;;;;4.05;0.55;;;;;;;;;;4968703;28;20050;-69
2024/01/14 13:14:20;;;;;;;4.63;0.50;;;;;;;;;;4968818;28;20050;-69
2024/01/14 13:16:48;;;;;;;3.38;0.45;;;;;;;;;;4958320;28;20057;-70
2024/01/14 13:19:15;;;;;;;5.63;0.50;;;;;;;;;;4968051;28;20055;-69
2024/01/14 13:21:42;;;;;;;4.68;0.60;;;;;;;;;;4970084;28;20138;-69
2024/01/14 13:24:10;;;;;;;6.72;1.33;;;;;;;;;;4972367;28;20058;-70
2024/01/14 13:26:40;;;;;;;6.22;2.00;;;;;;;;;;4971287;28;20058;-69
2024/01/14 13:29:07;;;;;;;4.90;0.80;;;;;;;;;;4970132;28;20129;-69
2024/01/14 13:31:37;;;;;;;5.65;0.90;;;;;;;;;;4972913;28;20061;-69
2024/01/14 13:34:05;;;;;;;8.40;0.52;;;;;;;;;;4969341;28;20058;-69
2024/01/14 13:36:32;;;;;;;3.63;0.40;;;;;;;;;;4973234;28;20563;-69
2024/01/14 13:39:01;;;;;;;3.97;0.40;;;;;;;;;;4965823;28;20055;-69
2024/01/14 13:41:28;;;;;;;2.03;0.20;;;;;;;;;;4970588;28;20054;-69
2024/01/14 13:43:57;;;;;;;2.75;0.50;;;;;;;;;;4969935;28;20046;-69
2024/01/14 13:46:24;;;;;;;3.75;0.65;;;;;;;;;;4973276;28;20150;-68
2024/01/14 13:48:53;;;;;;;3.17;0.45;;;;;;;;;;4968911;28;20082;-70
2024/01/14 13:51:22;;;;;;;3.33;0.40;;;;;;;;;;4971229;28;20506;-69
2024/01/14 13:53:49;;;;;;;4.63;0.90;;;;;;;;;;4964869;28;20094;-69
2024/01/14 13:56:17;;;;;;;9.55;1.63;;;;;;;;;;4971660;28;20387;-69
2024/01/14 13:58:44;;;;;;;13.23;1.55;;;;;;;;;;4970825;28;20430;-69
2024/01/14 14:01:11;;;;;;;6.88;1.02;;;;;;;;;;4969902;28;20051;-69
2024/01/14 14:03:39;;;;;;;7.97;0.90;;;;;;;;;;4971845;28;20678;-69
2024/01/14 14:06:07;;;;;;;2.85;0.55;;;;;;;;;;4971117;28;20039;-69
2024/01/14 14:08:34;;;;;;;7.68;0.70;;;;;;;;;;4959231;28;20058;-69
2024/01/14 14:11:02;;;;;;;6.32;0.90;;;;;;;;;;4970066;28;20105;-69
2024/01/14 14:13:29;;;;;;;3.78;0.65;;;;;;;;;;4970965;28;20054;-69
2024/01/14 14:15:56;;;;;;;4.68;1.13;;;;;;;;;;4969517;28;20051;-69
2024/01/14 14:18:24;;;;;;;9.38;0.75;;;;;;;;;;4972291;28;20050;-69
2024/01/14 14:20:51;;;;;;;5.68;0.65;;;;;;;;;;4969957;28;20827;-69
2024/01/14 14:23:19;;;;;;;8.60;1.60;;;;;;;;;;4971014;28;20049;-69
2024/01/14 14:25:47;;;;;;;6.68;0.95;;;;;;;;;;4970162;28;20043;-69
2024/01/14 14:28:14;;;;;;;5.88;0.47;;;;;;;;;;4971821;28;20074;-69
2024/01/14 14:30:41;;;;;;;9.18;1.00;;;;;;;;;;4969558;28;20502;-69
2024/01/14 14:33:08;;;;;;;7.97;0.63;;;;;;;;;;4971660;28;20051;-69
2024/01/14 14:35:37;;;;;;;5.18;1.58;;;;;;;;;;4970082;28;20050;-69
2024/01/14 14:38:07;;;;;;;8.95;1.10;;;;;;;;;;4964287;28;20106;-69
2024/01/14 14:40:36;;;;;;;7.45;1.00;;;;;;;;;;4966578;28;20065;-69